sensor_id;sensor_type;location;lat;lon;timestamp;pressure;altitude;pressure_sealevel;temperature;humidity
65832;BME280;52593;42.648;23.332;2023-05-18T00:01:33;94050.72;;;10.57;100.00
65832;BME280;52593;42.648;23.332;2023-05-18T00:03:59;94056.28;;;10.56;100.00
65832;BME280;52593;42.648;23.332;2023-05-18T00:06:26;94053.34;;;10.50;100.00
65832;BME280;52593;42.648;23.332;2023-05-18T00:08:52;94056.41;;;10.47;100.00
65832;BME280;52593;42.648;23.332;2023-05-18T00:11:17;94047.19;;;10.50;100.00
65832;BME280;52593;42.648;23.332;2023-05-18T00:13:42;94050.25;;;10.47;100.00
65832;BME280;52593;42.648;23.332;2023-05-18T00:16:08;94051.63;;;10.43;100.00
65832;BME280;52593;42.648;23.332;2023-05-18T00:18:36;94062.91;;;10.38;100.00
65832;BME280;52593;42.648;23.332;2023-05-18T00:21:01;94059.81;;;10.34;100.00
65832;BME280;52593;42.648;23.332;2023-05-18T00:23:30;94046.25;;;10.36;100.00
65832;BME280;52593;42.648;23.332;2023-05-18T00:26:00;94051.41;;;10.38;100.00
65832;BME280;52593;42.648;23.332;2023-05-18T00:28:27;94046.69;;;10.40;100.00
65832;BME280;52593;42.648;23.332;2023-05-18T00:30:53;94045.47;;;10.42;100.00
65832;BME280;52593;42.648;23.332;2023-05-18T00:33:20;94049.81;;;10.43;100.00
65832;BME280;52593;42.648;23.332;2023-05-18T00:35:45;94045.06;;;10.39;100.00
65832;BME280;52593;42.648;23.332;2023-05-18T00:38:11;94046.06;;;10.38;100.00
65832;BME280;52593;42.648;23.332;2023-05-18T00:40:38;94046.66;;;10.33;100.00
65832;BME280;52593;42.648;23.332;2023-05-18T00:43:03;94048.13;;;10.35;100.00
65832;BME280;52593;42.648;23.332;2023-05-18T00:45:29;94062.72;;;10.40;100.00
65832;BME280;52593;42.648;23.332;2023-05-18T00:47:54;94052.88;;;10.40;100.00
65832;BME280;52593;42.648;23.332;2023-05-18T00:50:20;94052.88;;;10.40;100.00
65832;BME280;52593;42.648;23.332;2023-05-18T00:52:45;94039.50;;;10.40;100.00
65832;BME280;52593;42.648;23.332;2023-05-18T00:55:12;94037.66;;;10.41;100.00
65832;BME280;52593;42.648;23.332;2023-05-18T00:57:39;94038.91;;;10.45;100.00
65832;BME280;52593;42.648;23.332;2023-05-18T01:00:07;94043.22;;;10.46;100.00
65832;BME280;52593;42.648;23.332;2023-05-18T01:02:37;94035.66;;;10.49;100.00
65832;BME280;52593;42.648;23.332;2023-05-18T01:05:07;94042.44;;;10.52;100.00
65832;BME280;52593;42.648;23.332;2023-05-18T01:07:32;94040.56;;;10.46;100.00
65832;BME280;52593;42.648;23.332;2023-05-18T01:09:58;94047.25;;;10.57;100.00
65832;BME280;52593;42.648;23.332;2023-05-18T01:12:28;94044.31;;;10.51;100.00
65832;BME280;52593;42.648;23.332;2023-05-18T01:15:09;94041.81;;;10.50;100.00
65832;BME280;52593;42.648;23.332;2023-05-18T01:20:34;94043.72;;;10.56;100.00
65832;BME280;52593;42.648;23.332;2023-05-18T01:28:23;94048.69;;;10.59;100.00
65832;BME280;52593;42.648;23.332;2023-05-18T01:30:52;94048.44;;;10.54;100.00
65832;BME280;52593;42.648;23.332;2023-05-18T01:33:18;94050.09;;;10.55;100.00
65832;BME280;52593;42.648;23.332;2023-05-18T01:35:43;94049.47;;;10.53;100.00
65832;BME280;52593;42.648;23.332;2023-05-18T01:38:16;94042.28;;;10.53;100.00
65832;BME280;52593;42.648;23.332;2023-05-18T01:40:59;94045.91;;;10.46;100.00
65832;BME280;52593;42.648;23.332;2023-05-18T01:43:34;94045.91;;;10.46;100.00
65832;BME280;52593;42.648;23.332;2023-05-18T01:46:16;94040.63;;;10.52;100.00
65832;BME280;52593;42.648;23.332;2023-05-18T01:48:48;94041.63;;;10.51;100.00
65832;BME280;52593;42.648;23.332;2023-05-18T01:51:19;94035.41;;;10.44;100.00
65832;BME280;52593;42.648;23.332;2023-05-18T01:53:52;94038.53;;;10.48;100.00
65832;BME280;52593;42.648;23.332;2023-05-18T01:56:19;94040.53;;;10.39;100.00
65832;BME280;52593;42.648;23.332;2023-05-18T01:58:46;94053.94;;;10.46;100.00
65832;BME280;52593;42.648;23.332;2023-05-18T02:01:11;94050.34;;;10.60;100.00
65832;BME280;52593;42.648;23.332;2023-05-18T02:03:37;94054.91;;;10.66;100.00
65832;BME280;52593;42.648;23.332;2023-05-18T02:06:03;94054.69;;;10.61;100.00
65832;BME280;52593;42.648;23.332;2023-05-18T02:08:28;94054.91;;;10.66;100.00
65832;BME280;52593;42.648;23.332;2023-05-18T02:10:53;94052.03;;;10.68;100.00
65832;BME280;52593;42.648;23.332;2023-05-18T02:13:19;94062.31;;;10.64;100.00
65832;BME280;52593;42.648;23.332;2023-05-18T02:15:44;94060.41;;;10.58;100.00
65832;BME280;52593;42.648;23.332;2023-05-18T02:18:10;94062.06;;;10.59;100.00
65832;BME280;52593;42.648;23.332;2023-05-18T02:20:35;94057.38;;;10.68;100.00
65832;BME280;52593;42.648;23.332;2023-05-18T02:23:02;94056.69;;;10.59;100.00
65832;BME280;52593;42.648;23.332;2023-05-18T02:25:27;94060.84;;;10.62;100.00
65832;BME280;52593;42.648;23.332;2023-05-18T02:27:53;94058.78;;;10.64;100.00
65832;BME280;52593;42.648;23.332;2023-05-18T02:30:18;94052.63;;;10.63;100.00
65832;BME280;52593;42.648;23.332;2023-05-18T02:32:44;94053.59;;;10.56;100.00
65832;BME280;52593;42.648;23.332;2023-05-18T02:35:11;94051.34;;;10.59;100.00
65832;BME280;52593;42.648;23.332;2023-05-18T02:37:37;94058.75;;;10.57;100.00
65832;BME280;52593;42.648;23.332;2023-05-18T02:40:08;94062.69;;;10.61;100.00
65832;BME280;52593;42.648;23.332;2023-05-18T02:42:34;94059.56;;;10.58;100.00
65832;BME280;52593;42.648;23.332;2023-05-18T02:44:59;94061.03;;;10.60;100.00
65832;BME280;52593;42.648;23.332;2023-05-18T02:47:26;94063.31;;;10.63;100.00
65832;BME280;52593;42.648;23.332;2023-05-18T02:49:51;94061.84;;;10.61;100.00
65832;BME280;52593;42.648;23.332;2023-05-18T02:52:17;94067.22;;;10.61;100.00
65832;BME280;52593;42.648;23.332;2023-05-18T02:54:42;94072.22;;;10.70;100.00
65832;BME280;52593;42.648;23.332;2023-05-18T02:57:08;94078.59;;;10.69;100.00
65832;BME280;52593;42.648;23.332;2023-05-18T02:59:33;94076.94;;;10.68;100.00
65832;BME280;52593;42.648;23.332;2023-05-18T03:01:58;94076.69;;;10.63;100.00
65832;BME280;52593;42.648;23.332;2023-05-18T03:04:24;94086.78;;;10.61;100.00
65832;BME280;52593;42.648;23.332;2023-05-18T03:06:50;94093.38;;;10.65;100.00
65832;BME280;52593;42.648;23.332;2023-05-18T03:09:17;94103.66;;;10.62;100.00
65832;BME280;52593;42.648;23.332;2023-05-18T03:11:43;94103.25;;;10.65;100.00
65832;BME280;52593;42.648;23.332;2023-05-18T03:14:09;94107.41;;;10.67;100.00
65832;BME280;52593;42.648;23.332;2023-05-18T03:16:34;94108.22;;;10.68;100.00
65832;BME280;52593;42.648;23.332;2023-05-18T03:19:03;94103.28;;;10.71;100.00
65832;BME280;52593;42.648;23.332;2023-05-18T03:21:28;94120.44;;;10.77;100.00
65832;BME280;52593;42.648;23.332;2023-05-18T03:24:01;94115.66;;;10.73;100.00
65832;BME280;52593;42.648;23.332;2023-05-18T03:26:27;94123.66;;;10.66;100.00
65832;BME280;52593;42.648;23.332;2023-05-18T03:28:56;94121.41;;;10.69;100.00
65832;BME280;52593;42.648;23.332;2023-05-18T03:31:21;94121.50;;;10.83;100.00
65832;BME280;52593;42.648;23.332;2023-05-18T03:33:47;94122.75;;;10.87;100.00
65832;BME280;52593;42.648;23.332;2023-05-18T03:36:12;94126.16;;;10.74;100.00
65832;BME280;52593;42.648;23.332;2023-05-18T03:38:37;94120.41;;;10.70;100.00
65832;BME280;52593;42.648;23.332;2023-05-18T03:41:03;94121.78;;;10.66;100.00
65832;BME280;52593;42.648;23.332;2023-05-18T03:43:29;94125.47;;;10.65;100.00
65832;BME280;52593;42.648;23.332;2023-05-18T03:45:56;94129.41;;;10.63;100.00
65832;BME280;52593;42.648;23.332;2023-05-18T03:48:23;94132.66;;;10.58;100.00
65832;BME280;52593;42.648;23.332;2023-05-18T03:50:48;94137.34;;;10.56;100.00
65832;BME280;52593;42.648;23.332;2023-05-18T03:53:14;94137.34;;;10.56;100.00
65832;BME280;52593;42.648;23.332;2023-05-18T03:55:45;94137.72;;;10.53;100.00
65832;BME280;52593;42.648;23.332;2023-05-18T03:58:11;94134.69;;;10.56;100.00
65832;BME280;52593;42.648;23.332;2023-05-18T04:00:36;94141.41;;;10.52;100.00
65832;BME280;52593;42.648;23.332;2023-05-18T04:03:01;94143.34;;;10.58;100.00
65832;BME280;52593;42.648;23.332;2023-05-18T04:05:30;94141.41;;;10.52;100.00
65832;BME280;52593;42.648;23.332;2023-05-18T04:07:56;94154.63;;;10.53;100.00
65832;BME280;52593;42.648;23.332;2023-05-18T04:10:22;94160.41;;;10.57;100.00
65832;BME280;52593;42.648;23.332;2023-05-18T04:12:48;94149.72;;;10.57;100.00
65832;BME280;52593;42.648;23.332;2023-05-18T04:15:13;94158.81;;;10.63;100.00
65832;BME280;52593;42.648;23.332;2023-05-18T04:17:39;94163.47;;;10.54;100.00
65832;BME280;52593;42.648;23.332;2023-05-18T04:20:12;94158.13;;;10.54;100.00
65832;BME280;52593;42.648;23.332;2023-05-18T04:22:43;94167.25;;;10.60;100.00
65832;BME280;52593;42.648;23.332;2023-05-18T04:25:11;94161.69;;;10.61;100.00
65832;BME280;52593;42.648;23.332;2023-05-18T04:27:37;94155.09;;;10.64;100.00
65832;BME280;52593;42.648;23.332;2023-05-18T04:30:03;94155.00;;;10.72;100.00
65832;BME280;52593;42.648;23.332;2023-05-18T04:32:29;94158.09;;;10.76;100.00
65832;BME280;52593;42.648;23.332;2023-05-18T04:34:56;94152.53;;;10.77;100.00
65832;BME280;52593;42.648;23.332;2023-05-18T04:37:23;94160.16;;;10.74;100.00
65832;BME280;52593;42.648;23.332;2023-05-18T04:39:48;94162.84;;;10.80;100.00
65832;BME280;52593;42.648;23.332;2023-05-18T04:42:14;94164.53;;;10.81;100.00
65832;BME280;52593;42.648;23.332;2023-05-18T04:44:42;94164.75;;;10.86;100.00
65832;BME280;52593;42.648;23.332;2023-05-18T04:47:08;94171.19;;;10.92;100.00
65832;BME280;52593;42.648;23.332;2023-05-18T04:49:33;94175.13;;;10.96;100.00
65832;BME280;52593;42.648;23.332;2023-05-18T04:51:59;94180.28;;;10.98;100.00
65832;BME280;52593;42.648;23.332;2023-05-18T04:54:26;94178.06;;;11.01;100.00
65832;BME280;52593;42.648;23.332;2023-05-18T04:56:56;94178.44;;;10.98;100.00
65832;BME280;52593;42.648;23.332;2023-05-18T04:59:22;94186.69;;;11.03;100.00
65832;BME280;52593;42.648;23.332;2023-05-18T05:01:53;94187.09;;;11.00;100.00
65832;BME280;52593;42.648;23.332;2023-05-18T05:04:22;94203.00;;;11.09;100.00
65832;BME280;52593;42.648;23.332;2023-05-18T05:06:48;94197.06;;;11.13;100.00
65832;BME280;52593;42.648;23.332;2023-05-18T05:09:13;94199.94;;;11.12;100.00
65832;BME280;52593;42.648;23.332;2023-05-18T05:11:39;94209.41;;;11.07;100.00
65832;BME280;52593;42.648;23.332;2023-05-18T05:14:06;94201.38;;;11.07;100.00
65832;BME280;52593;42.648;23.332;2023-05-18T05:16:31;94199.06;;;11.04;100.00
65832;BME280;52593;42.648;23.332;2023-05-18T05:18:57;94209.00;;;11.11;100.00
65832;BME280;52593;42.648;23.332;2023-05-18T05:21:22;94209.81;;;11.11;100.00
65832;BME280;52593;42.648;23.332;2023-05-18T05:23:47;94214.38;;;11.11;100.00
65832;BME280;52593;42.648;23.332;2023-05-18T05:26:13;94209.13;;;11.02;100.00
65832;BME280;52593;42.648;23.332;2023-05-18T05:28:38;94213.88;;;11.00;100.00
65832;BME280;52593;42.648;23.332;2023-05-18T05:31:04;94211.81;;;11.02;100.00
65832;BME280;52593;42.648;23.332;2023-05-18T05:33:30;94220.44;;;10.98;100.00
65832;BME280;52593;42.648;23.332;2023-05-18T05:35:55;94230.31;;;10.97;100.00
65832;BME280;52593;42.648;23.332;2023-05-18T05:38:20;94221.69;;;11.02;100.00
65832;BME280;52593;42.648;23.332;2023-05-18T05:40:46;94224.03;;;11.12;100.00
65832;BME280;52593;42.648;23.332;2023-05-18T05:43:11;94222.19;;;11.12;100.00
65832;BME280;52593;42.648;23.332;2023-05-18T05:45:37;94232.03;;;11.05;100.00
65832;BME280;52593;42.648;23.332;2023-05-18T05:48:03;94229.78;;;11.09;100.00
65832;BME280;52593;42.648;23.332;2023-05-18T05:50:28;94227.56;;;11.12;100.00
65832;BME280;52593;42.648;23.332;2023-05-18T05:52:54;94232.22;;;11.03;100.00
65832;BME280;52593;42.648;23.332;2023-05-18T05:55:20;94232.06;;;11.12;100.00
65832;BME280;52593;42.648;23.332;2023-05-18T05:57:46;94235.78;;;11.11;100.00
65832;BME280;52593;42.648;23.332;2023-05-18T06:00:12;94232.06;;;11.12;100.00
65832;BME280;52593;42.648;23.332;2023-05-18T06:02:39;94233.88;;;11.04;100.00
65832;BME280;52593;42.648;23.332;2023-05-18T06:05:05;94238.19;;;11.05;100.00
65832;BME280;52593;42.648;23.332;2023-05-18T06:07:31;94229.25;;;11.20;100.00
65832;BME280;52593;42.648;23.332;2023-05-18T06:09:57;94231.94;;;11.20;100.00
65832;BME280;52593;42.648;23.332;2023-05-18T06:12:22;94235.78;;;11.11;100.00
65832;BME280;52593;42.648;23.332;2023-05-18T06:14:48;94238.19;;;11.05;100.00
65832;BME280;52593;42.648;23.332;2023-05-18T06:17:13;94235.81;;;11.17;100.00
65832;BME280;52593;42.648;23.332;2023-05-18T06:19:39;94241.19;;;11.17;100.00
65832;BME280;52593;42.648;23.332;2023-05-18T06:22:04;94250.22;;;11.16;100.00
65832;BME280;52593;42.648;23.332;2023-05-18T06:24:30;94249.41;;;11.16;100.00
65832;BME280;52593;42.648;23.332;2023-05-18T06:26:56;94251.97;;;11.24;100.00
65832;BME280;52593;42.648;23.332;2023-05-18T06:29:21;94244.84;;;11.10;100.00
65832;BME280;52593;42.648;23.332;2023-05-18T06:31:47;94249.28;;;11.02;100.00
65832;BME280;52593;42.648;23.332;2023-05-18T06:34:12;94254.03;;;11.00;100.00
65832;BME280;52593;42.648;23.332;2023-05-18T06:36:37;94261.81;;;10.95;100.00
65832;BME280;52593;42.648;23.332;2023-05-18T06:39:03;94267.19;;;10.95;100.00
65832;BME280;52593;42.648;23.332;2023-05-18T06:41:29;94269.66;;;10.97;100.00
65832;BME280;52593;42.648;23.332;2023-05-18T06:43:55;94269.50;;;11.05;100.00
65832;BME280;52593;42.648;23.332;2023-05-18T06:46:21;94274.09;;;11.11;100.00
65832;BME280;52593;42.648;23.332;2023-05-18T06:48:47;94270.44;;;11.19;100.00
65832;BME280;52593;42.648;23.332;2023-05-18T06:51:12;94274.13;;;11.39;100.00
65832;BME280;52593;42.648;23.332;2023-05-18T06:53:40;94273.19;;;11.60;100.00
65832;BME280;52593;42.648;23.332;2023-05-18T06:56:06;94271.47;;;11.81;100.00
65832;BME280;52593;42.648;23.332;2023-05-18T06:58:31;94281.47;;;11.94;100.00
65832;BME280;52593;42.648;23.332;2023-05-18T07:00:57;94285.03;;;12.08;100.00
65832;BME280;52593;42.648;23.332;2023-05-18T07:03:22;94286.16;;;11.85;100.00
65832;BME280;52593;42.648;23.332;2023-05-18T07:05:47;94296.50;;;11.60;100.00
65832;BME280;52593;42.648;23.332;2023-05-18T07:08:13;94299.34;;;11.52;100.00
65832;BME280;52593;42.648;23.332;2023-05-18T07:10:38;94301.75;;;11.47;100.00
65832;BME280;52593;42.648;23.332;2023-05-18T07:13:04;94298.22;;;11.39;100.00
65832;BME280;52593;42.648;23.332;2023-05-18T07:15:29;94302.34;;;11.42;100.00
65832;BME280;52593;42.648;23.332;2023-05-18T07:17:55;94308.97;;;11.46;100.00
65832;BME280;52593;42.648;23.332;2023-05-18T07:20:20;94307.78;;;11.49;100.00
65832;BME280;52593;42.648;23.332;2023-05-18T07:22:45;94303.78;;;11.38;100.00
65832;BME280;52593;42.648;23.332;2023-05-18T07:25:11;94314.28;;;11.39;100.00
65832;BME280;52593;42.648;23.332;2023-05-18T07:27:36;94317.59;;;11.41;100.00
65832;BME280;52593;42.648;23.332;2023-05-18T07:30:02;94319.06;;;11.44;100.00
65832;BME280;52593;42.648;23.332;2023-05-18T07:32:27;94318.41;;;11.42;100.00
65832;BME280;52593;42.648;23.332;2023-05-18T07:34:52;94320.47;;;11.40;100.00
65832;BME280;52593;42.648;23.332;2023-05-18T07:37:18;94326.03;;;11.38;100.00
65832;BME280;52593;42.648;23.332;2023-05-18T07:39:43;94342.13;;;11.45;100.00
65832;BME280;52593;42.648;23.332;2023-05-18T07:42:09;94332.84;;;11.41;100.00
65832;BME280;52593;42.648;23.332;2023-05-18T07:44:35;94338.59;;;11.38;100.00
65832;BME280;52593;42.648;23.332;2023-05-18T07:47:00;94338.59;;;11.38;100.00
65832;BME280;52593;42.648;23.332;2023-05-18T07:49:26;94344.00;;;11.45;100.00
65832;BME280;52593;42.648;23.332;2023-05-18T07:51:51;94353.91;;;11.44;100.00
65832;BME280;52593;42.648;23.332;2023-05-18T07:54:17;94355.53;;;11.45;100.00
65832;BME280;52593;42.648;23.332;2023-05-18T07:56:43;94355.53;;;11.45;100.00
65832;BME280;52593;42.648;23.332;2023-05-18T07:59:09;94359.66;;;11.41;100.00
65832;BME280;52593;42.648;23.332;2023-05-18T08:01:35;94356.78;;;11.42;99.58
65832;BME280;52593;42.648;23.332;2023-05-18T08:04:02;94362.19;;;11.49;100.00
65832;BME280;52593;42.648;23.332;2023-05-18T08:06:27;94366.31;;;11.52;100.00
65832;BME280;52593;42.648;23.332;2023-05-18T08:08:53;94377.03;;;11.52;100.00
65832;BME280;52593;42.648;23.332;2023-05-18T08:11:21;94373.31;;;11.53;100.00
65832;BME280;52593;42.648;23.332;2023-05-18T08:13:46;94377.66;;;11.54;100.00
65832;BME280;52593;42.648;23.332;2023-05-18T08:16:12;94379.72;;;11.52;100.00
65832;BME280;52593;42.648;23.332;2023-05-18T08:18:37;94386.09;;;11.51;100.00
65832;BME280;52593;42.648;23.332;2023-05-18T08:21:03;94392.66;;;11.48;98.19
65832;BME280;52593;42.648;23.332;2023-05-18T08:23:32;94390.19;;;11.47;96.85
65832;BME280;52593;42.648;23.332;2023-05-18T08:25:57;94393.13;;;11.52;98.06
65832;BME280;52593;42.648;23.332;2023-05-18T08:28:24;94397.81;;;11.50;100.00
65832;BME280;52593;42.648;23.332;2023-05-18T08:30:50;94402.59;;;11.54;100.00
65832;BME280;52593;42.648;23.332;2023-05-18T08:33:16;94401.75;;;11.47;98.49
65832;BME280;52593;42.648;23.332;2023-05-18T08:35:41;94405.88;;;11.50;99.51
65832;BME280;52593;42.648;23.332;2023-05-18T08:38:07;94406.91;;;11.49;99.15
65832;BME280;52593;42.648;23.332;2023-05-18T08:40:42;94404.63;;;11.46;100.00
65832;BME280;52593;42.648;23.332;2023-05-18T08:43:29;94408.09;;;11.46;100.00
65832;BME280;52593;42.648;23.332;2023-05-18T08:46:04;94407.91;;;11.48;100.00
65832;BME280;52593;42.648;23.332;2023-05-18T08:48:32;94416.97;;;11.47;100.00
65832;BME280;52593;42.648;23.332;2023-05-18T08:51:00;94423.38;;;11.46;100.00
65832;BME280;52593;42.648;23.332;2023-05-18T08:53:28;94418.25;;;11.51;100.00
65832;BME280;52593;42.648;23.332;2023-05-18T08:55:54;94430.81;;;11.50;100.00
65832;BME280;52593;42.648;23.332;2023-05-18T08:58:26;94432.47;;;11.51;100.00
65832;BME280;52593;42.648;23.332;2023-05-18T09:00:55;94433.50;;;11.50;100.00
65832;BME280;52593;42.648;23.332;2023-05-18T09:03:20;94434.94;;;11.53;100.00
65832;BME280;52593;42.648;23.332;2023-05-18T09:05:47;94439.69;;;11.51;99.26
65832;BME280;52593;42.648;23.332;2023-05-18T09:08:14;94447.53;;;11.52;98.82
65832;BME280;52593;42.648;23.332;2023-05-18T09:10:39;94450.97;;;11.46;98.06
65832;BME280;52593;42.648;23.332;2023-05-18T09:13:05;94449.31;;;11.45;91.68
65832;BME280;52593;42.648;23.332;2023-05-18T09:15:32;94457.25;;;11.53;91.55
65832;BME280;52593;42.648;23.332;2023-05-18T09:17:59;94454.38;;;11.55;93.34
65832;BME280;52593;42.648;23.332;2023-05-18T09:20:25;94456.78;;;11.50;98.00
65832;BME280;52593;42.648;23.332;2023-05-18T09:22:51;94457.44;;;11.52;99.55
65832;BME280;52593;42.648;23.332;2023-05-18T09:25:17;94448.31;;;11.46;97.12
65832;BME280;52593;42.648;23.332;2023-05-18T09:27:42;94457.44;;;11.52;97.99
65832;BME280;52593;42.648;23.332;2023-05-18T09:30:11;94456.59;;;11.51;98.04
65832;BME280;52593;42.648;23.332;2023-05-18T09:32:37;94457.03;;;11.55;98.13
65832;BME280;52593;42.648;23.332;2023-05-18T09:35:06;94453.97;;;11.58;96.91
65832;BME280;52593;42.648;23.332;2023-05-18T09:37:33;94454.22;;;11.63;98.65
65832;BME280;52593;42.648;23.332;2023-05-18T09:40:00;94456.34;;;11.46;95.49
65832;BME280;52593;42.648;23.332;2023-05-18T09:42:31;94458.81;;;11.48;95.10
65832;BME280;52593;42.648;23.332;2023-05-18T09:44:58;94463.75;;;11.44;97.21
65832;BME280;52593;42.648;23.332;2023-05-18T09:47:26;94464.44;;;11.53;97.64
65832;BME280;52593;42.648;23.332;2023-05-18T09:49:52;94466.88;;;11.48;95.13
65832;BME280;52593;42.648;23.332;2023-05-18T09:52:20;94470.75;;;11.45;94.14
65832;BME280;52593;42.648;23.332;2023-05-18T09:54:52;94470.31;;;11.41;91.27
65832;BME280;52593;42.648;23.332;2023-05-18T09:57:21;94475.28;;;11.45;92.67
65832;BME280;52593;42.648;23.332;2023-05-18T09:59:55;94473.69;;;11.50;92.26
65832;BME280;52593;42.648;23.332;2023-05-18T10:02:20;94478.22;;;11.50;92.21
65832;BME280;52593;42.648;23.332;2023-05-18T10:04:49;94480.31;;;11.54;91.37
65832;BME280;52593;42.648;23.332;2023-05-18T10:07:15;94476.44;;;11.57;90.92
65832;BME280;52593;42.648;23.332;2023-05-18T10:09:43;94478.97;;;11.65;91.98
65832;BME280;52593;42.648;23.332;2023-05-18T10:12:14;94477.63;;;11.76;92.04
65832;BME280;52593;42.648;23.332;2023-05-18T10:14:44;94484.66;;;11.77;88.96
65832;BME280;52593;42.648;23.332;2023-05-18T10:17:14;94479.72;;;11.81;88.67
65832;BME280;52593;42.648;23.332;2023-05-18T10:19:40;94483.06;;;11.83;88.51
65832;BME280;52593;42.648;23.332;2023-05-18T10:22:07;94482.22;;;11.82;89.58
65832;BME280;52593;42.648;23.332;2023-05-18T10:24:35;94483.25;;;11.81;88.81
65832;BME280;52593;42.648;23.332;2023-05-18T10:27:06;94487.78;;;11.81;88.96
65832;BME280;52593;42.648;23.332;2023-05-18T10:29:32;94491.69;;;11.78;89.08
65832;BME280;52593;42.648;23.332;2023-05-18T10:31:59;94494.38;;;11.78;89.20
65832;BME280;52593;42.648;23.332;2023-05-18T10:34:28;94498.63;;;11.72;89.48
65832;BME280;52593;42.648;23.332;2023-05-18T10:36:55;94499.44;;;11.73;88.99
65832;BME280;52593;42.648;23.332;2023-05-18T10:39:20;94500.03;;;11.68;90.68
65832;BME280;52593;42.648;23.332;2023-05-18T10:41:48;94504.53;;;11.61;90.46
65832;BME280;52593;42.648;23.332;2023-05-18T10:44:14;94497.16;;;11.70;91.77
65832;BME280;52593;42.648;23.332;2023-05-18T10:46:40;94503.22;;;11.78;90.33
65832;BME280;52593;42.648;23.332;2023-05-18T10:49:07;94508.59;;;11.78;89.92
65832;BME280;52593;42.648;23.332;2023-05-18T10:51:40;94512.09;;;11.79;90.47
65832;BME280;52593;42.648;23.332;2023-05-18T10:54:11;94515.44;;;11.81;90.62
65832;BME280;52593;42.648;23.332;2023-05-18T10:56:41;94513.09;;;11.93;91.97
65832;BME280;52593;42.648;23.332;2023-05-18T10:59:08;94513.38;;;12.05;90.10
65832;BME280;52593;42.648;23.332;2023-05-18T11:01:35;94513.00;;;12.08;88.88
65832;BME280;52593;42.648;23.332;2023-05-18T11:04:03;94520.22;;;12.07;87.86
65832;BME280;52593;42.648;23.332;2023-05-18T11:06:29;94516.53;;;12.08;86.47
65832;BME280;52593;42.648;23.332;2023-05-18T11:08:55;94519.44;;;12.13;89.01
65832;BME280;52593;42.648;23.332;2023-05-18T11:11:24;94521.13;;;12.15;92.08
65832;BME280;52593;42.648;23.332;2023-05-18T11:13:58;94526.03;;;12.11;90.99
65832;BME280;52593;42.648;23.332;2023-05-18T11:16:32;94533.06;;;12.12;89.91
65832;BME280;52593;42.648;23.332;2023-05-18T11:19:05;94537.13;;;12.08;91.33
65832;BME280;52593;42.648;23.332;2023-05-18T11:26:53;94544.53;;;12.27;93.90
65832;BME280;52593;42.648;23.332;2023-05-18T11:29:29;94548.69;;;12.30;95.40
65832;BME280;52593;42.648;23.332;2023-05-18T11:31:55;94554.69;;;12.32;95.70
65832;BME280;52593;42.648;23.332;2023-05-18T11:34:43;94554.44;;;12.27;96.49
65832;BME280;52593;42.648;23.332;2023-05-18T11:37:13;94555.47;;;12.26;97.45
65832;BME280;52593;42.648;23.332;2023-05-18T11:39:39;94553.31;;;12.15;97.10
65832;BME280;52593;42.648;23.332;2023-05-18T11:42:09;94547.19;;;11.99;98.11
65832;BME280;52593;42.648;23.332;2023-05-18T11:44:36;94558.09;;;11.98;97.98
65832;BME280;52593;42.648;23.332;2023-05-18T11:47:06;94556.69;;;12.02;97.03
65832;BME280;52593;42.648;23.332;2023-05-18T11:49:41;94557.34;;;11.67;96.66
65832;BME280;52593;42.648;23.332;2023-05-18T11:52:12;94561.88;;;11.67;96.98
65832;BME280;52593;42.648;23.332;2023-05-18T11:54:57;94560.09;;;11.74;98.76
65832;BME280;52593;42.648;23.332;2023-05-18T11:57:24;94558.69;;;11.78;98.08
65832;BME280;52593;42.648;23.332;2023-05-18T11:59:55;94556.75;;;11.87;95.51
65832;BME280;52593;42.648;23.332;2023-05-18T12:02:26;94556.81;;;11.93;94.54
65832;BME280;52593;42.648;23.332;2023-05-18T12:04:56;94564.69;;;11.95;91.62
65832;BME280;52593;42.648;23.332;2023-05-18T12:07:22;94560.03;;;11.89;92.00
65832;BME280;52593;42.648;23.332;2023-05-18T12:09:52;94569.09;;;11.88;92.05
65832;BME280;52593;42.648;23.332;2023-05-18T12:12:21;94564.22;;;11.91;92.46
65832;BME280;52593;42.648;23.332;2023-05-18T12:14:58;94556.38;;;12.11;93.69
65832;BME280;52593;42.648;23.332;2023-05-18T12:17:47;94562.31;;;12.07;90.63
65832;BME280;52593;42.648;23.332;2023-05-18T12:20:17;94567.53;;;11.93;87.40
65832;BME280;52593;42.648;23.332;2023-05-18T12:22:45;94553.00;;;12.03;89.93
65832;BME280;52593;42.648;23.332;2023-05-18T12:25:11;94559.94;;;12.19;90.30
65832;BME280;52593;42.648;23.332;2023-05-18T12:27:38;94559.53;;;12.22;89.20
65832;BME280;52593;42.648;23.332;2023-05-18T12:30:16;94561.41;;;12.21;92.77
65832;BME280;52593;42.648;23.332;2023-05-18T12:32:50;94561.22;;;12.23;93.04
65832;BME280;52593;42.648;23.332;2023-05-18T12:35:16;94556.94;;;12.07;91.58
65832;BME280;52593;42.648;23.332;2023-05-18T12:37:45;94558.53;;;12.01;87.82
65832;BME280;52593;42.648;23.332;2023-05-18T12:40:18;94562.63;;;11.97;89.13
65832;BME280;52593;42.648;23.332;2023-05-18T12:43:00;94576.50;;;12.01;91.06
65832;BME280;52593;42.648;23.332;2023-05-18T12:45:31;94567.78;;;11.99;88.65
65832;BME280;52593;42.648;23.332;2023-05-18T12:48:07;94567.34;;;11.95;89.27
65832;BME280;52593;42.648;23.332;2023-05-18T12:50:33;94569.84;;;11.97;93.31
65832;BME280;52593;42.648;23.332;2023-05-18T12:52:59;94572.09;;;11.93;94.61
65832;BME280;52593;42.648;23.332;2023-05-18T12:55:25;94569.44;;;11.78;91.02
65832;BME280;52593;42.648;23.332;2023-05-18T13:00:33;94567.00;;;11.83;95.67